sensor_id;sensor_type;location;lat;lon;timestamp;pressure;altitude;pressure_sealevel;temperature;humidity
45078;BME280;60508;42.622;25.416;2022-09-09T00:00:41;97008.84;;;20.10;51.64
45078;BME280;60508;42.622;25.416;2022-09-09T00:03:16;97020.00;;;20.14;51.68
45078;BME280;60508;42.622;25.416;2022-09-09T00:06:08;97014.91;;;20.07;51.84
45078;BME280;60508;42.622;25.416;2022-09-09T00:08:43;97007.41;;;19.99;52.38
45078;BME280;60508;42.622;25.416;2022-09-09T00:11:13;97008.66;;;20.06;52.55
45078;BME280;60508;42.622;25.416;2022-09-09T00:13:48;97005.22;;;20.01;52.98
45078;BME280;60508;42.622;25.416;2022-09-09T00:16:23;97014.00;;;19.98;52.96
45078;BME280;60508;42.622;25.416;2022-09-09T00:19:06;97015.34;;;20.14;52.35
45078;BME280;60508;42.622;25.416;2022-09-09T00:21:37;97024.97;;;19.93;53.16
45078;BME280;60508;42.622;25.416;2022-09-09T00:24:28;97024.03;;;19.83;53.04
45078;BME280;60508;42.622;25.416;2022-09-09T00:27:07;97013.25;;;19.92;53.04
45078;BME280;60508;42.622;25.416;2022-09-09T00:29:45;97020.41;;;19.69;53.35
45078;BME280;60508;42.622;25.416;2022-09-09T00:32:16;97008.34;;;19.56;53.75
45078;BME280;60508;42.622;25.416;2022-09-09T00:34:54;97022.78;;;19.57;54.35
45078;BME280;60508;42.622;25.416;2022-09-09T00:37:24;97015.69;;;19.75;53.29
45078;BME280;60508;42.622;25.416;2022-09-09T00:39:53;97026.22;;;19.81;52.67
45078;BME280;60508;42.622;25.416;2022-09-09T00:47:50;97038.50;;;19.03;55.12
45078;BME280;60508;42.622;25.416;2022-09-09T00:56:17;97036.09;;;18.23;58.30
45078;BME280;60508;42.622;25.416;2022-09-09T01:01:36;97032.81;;;18.21;58.72
45078;BME280;60508;42.622;25.416;2022-09-09T01:04:11;97030.66;;;18.23;58.61
45078;BME280;60508;42.622;25.416;2022-09-09T01:06:43;97020.75;;;18.33;58.66
45078;BME280;60508;42.622;25.416;2022-09-09T01:17:04;97014.41;;;18.42;58.83
45078;BME280;60508;42.622;25.416;2022-09-09T01:22:34;97015.97;;;18.49;58.89
45078;BME280;60508;42.622;25.416;2022-09-09T01:28:03;97011.16;;;18.65;57.62
45078;BME280;60508;42.622;25.416;2022-09-09T01:30:33;96996.63;;;18.50;58.14
45078;BME280;60508;42.622;25.416;2022-09-09T01:33:00;97001.41;;;18.34;58.73
45078;BME280;60508;42.622;25.416;2022-09-09T01:37:59;96989.66;;;18.39;58.65
45078;BME280;60508;42.622;25.416;2022-09-09T01:40:26;96992.38;;;18.39;58.63
45078;BME280;60508;42.622;25.416;2022-09-09T01:42:54;96995.25;;;18.53;58.26
45078;BME280;60508;42.622;25.416;2022-09-09T01:45:22;96994.72;;;18.51;58.43
45078;BME280;60508;42.622;25.416;2022-09-09T01:47:49;97004.22;;;18.53;58.38
45078;BME280;60508;42.622;25.416;2022-09-09T01:50:20;96990.25;;;18.36;58.37
45078;BME280;60508;42.622;25.416;2022-09-09T01:52:50;97001.41;;;18.34;58.41
45078;BME280;60508;42.622;25.416;2022-09-09T01:55:29;96981.44;;;18.44;58.20
45078;BME280;60508;42.622;25.416;2022-09-09T02:01:22;96989.91;;;18.67;57.49
45078;BME280;60508;42.622;25.416;2022-09-09T02:03:57;96983.84;;;18.51;57.54
45078;BME280;60508;42.622;25.416;2022-09-09T02:06:30;96976.66;;;18.36;58.54
45078;BME280;60508;42.622;25.416;2022-09-09T02:09:10;96975.91;;;18.30;58.35
45078;BME280;60508;42.622;25.416;2022-09-09T02:11:38;96980.78;;;18.33;58.64
45078;BME280;60508;42.622;25.416;2022-09-09T02:14:17;96987.44;;;18.46;58.44
45078;BME280;60508;42.622;25.416;2022-09-09T02:16:50;96992.63;;;18.67;57.62
45078;BME280;60508;42.622;25.416;2022-09-09T02:19:23;96986.38;;;18.66;56.96
45078;BME280;60508;42.622;25.416;2022-09-09T02:22:11;96979.63;;;18.39;58.00
45078;BME280;60508;42.622;25.416;2022-09-09T02:24:39;96977.94;;;18.43;57.43
45078;BME280;60508;42.622;25.416;2022-09-09T02:27:20;96973.63;;;18.37;57.12
45078;BME280;60508;42.622;25.416;2022-09-09T02:29:49;96978.97;;;18.23;57.51
45078;BME280;60508;42.622;25.416;2022-09-09T02:32:23;96980.56;;;18.24;57.76
45078;BME280;60508;42.622;25.416;2022-09-09T02:34:57;96977.06;;;18.24;57.72
45078;BME280;60508;42.622;25.416;2022-09-09T02:37:29;96981.75;;;18.18;57.79
45078;BME280;60508;42.622;25.416;2022-09-09T02:39:57;96982.97;;;18.02;58.60
45078;BME280;60508;42.622;25.416;2022-09-09T02:42:24;96984.16;;;17.96;59.21
45078;BME280;60508;42.622;25.416;2022-09-09T02:44:52;96976.31;;;17.84;59.73
45078;BME280;60508;42.622;25.416;2022-09-09T02:47:39;96973.94;;;17.77;59.84
45078;BME280;60508;42.622;25.416;2022-09-09T02:55:58;96988.38;;;17.73;59.66
45078;BME280;60508;42.622;25.416;2022-09-09T02:58:26;96987.16;;;17.94;59.08
45078;BME280;60508;42.622;25.416;2022-09-09T03:00:58;96986.91;;;17.85;59.39
45078;BME280;60508;42.622;25.416;2022-09-09T03:03:25;96979.69;;;18.05;58.55
45078;BME280;60508;42.622;25.416;2022-09-09T03:05:52;96990.19;;;17.82;59.12
45078;BME280;60508;42.622;25.416;2022-09-09T03:08:19;96987.81;;;17.76;59.63
45078;BME280;60508;42.622;25.416;2022-09-09T03:10:45;96992.78;;;17.63;59.75
45078;BME280;60508;42.622;25.416;2022-09-09T03:13:14;97002.81;;;17.68;59.91
45078;BME280;60508;42.622;25.416;2022-09-09T03:15:41;97003.09;;;17.66;59.86
45078;BME280;60508;42.622;25.416;2022-09-09T03:18:12;96992.44;;;17.75;59.72
45078;BME280;60508;42.622;25.416;2022-09-09T03:20:39;96994.03;;;17.76;59.68
45078;BME280;60508;42.622;25.416;2022-09-09T03:23:07;96998.59;;;17.91;59.66
45078;BME280;60508;42.622;25.416;2022-09-09T03:25:33;96989.75;;;18.04;59.40
45078;BME280;60508;42.622;25.416;2022-09-09T03:28:00;96989.75;;;18.04;59.27
45078;BME280;60508;42.622;25.416;2022-09-09T03:30:27;96998.44;;;18.06;59.42
45078;BME280;60508;42.622;25.416;2022-09-09T03:32:55;96995.00;;;17.96;59.66
45078;BME280;60508;42.622;25.416;2022-09-09T03:35:25;96994.53;;;17.83;60.34
45078;BME280;60508;42.622;25.416;2022-09-09T03:37:52;97003.81;;;17.77;60.69
45078;BME280;60508;42.622;25.416;2022-09-09T03:40:18;97000.81;;;17.79;60.44
45078;BME280;60508;42.622;25.416;2022-09-09T03:42:45;97001.44;;;17.70;61.21
45078;BME280;60508;42.622;25.416;2022-09-09T03:45:12;96993.75;;;17.83;60.52
45078;BME280;60508;42.622;25.416;2022-09-09T03:47:40;96993.97;;;17.86;60.50
45078;BME280;60508;42.622;25.416;2022-09-09T03:50:07;97002.94;;;17.87;60.26
45078;BME280;60508;42.622;25.416;2022-09-09T03:52:39;97002.13;;;17.86;60.21
45078;BME280;60508;42.622;25.416;2022-09-09T03:55:10;97007.03;;;17.90;60.14
45078;BME280;60508;42.622;25.416;2022-09-09T03:57:36;97012.03;;;18.06;59.11
45078;BME280;60508;42.622;25.416;2022-09-09T04:00:07;97018.59;;;18.00;59.05
45078;BME280;60508;42.622;25.416;2022-09-09T04:02:42;97019.94;;;17.63;60.51
45078;BME280;60508;42.622;25.416;2022-09-09T04:05:12;97025.53;;;17.43;61.10
45078;BME280;60508;42.622;25.416;2022-09-09T04:07:41;97010.47;;;17.16;62.03
45078;BME280;60508;42.622;25.416;2022-09-09T04:10:07;97025.41;;;17.19;62.32
45078;BME280;60508;42.622;25.416;2022-09-09T04:12:36;97027.38;;;17.08;63.28
45078;BME280;60508;42.622;25.416;2022-09-09T04:15:02;97026.34;;;16.93;63.81
45078;BME280;60508;42.622;25.416;2022-09-09T04:17:29;97025.53;;;16.83;64.24
45078;BME280;60508;42.622;25.416;2022-09-09T04:19:56;97023.97;;;16.76;64.65
45078;BME280;60508;42.622;25.416;2022-09-09T04:22:23;97025.88;;;16.66;64.78
45078;BME280;60508;42.622;25.416;2022-09-09T04:24:49;97017.72;;;16.71;64.82
45078;BME280;60508;42.622;25.416;2022-09-09T04:27:17;97015.25;;;16.79;64.85
45078;BME280;60508;42.622;25.416;2022-09-09T04:29:43;97001.13;;;16.93;64.77
45078;BME280;60508;42.622;25.416;2022-09-09T04:32:09;97004.81;;;17.12;63.87
45078;BME280;60508;42.622;25.416;2022-09-09T04:34:35;97007.19;;;17.24;63.35
45078;BME280;60508;42.622;25.416;2022-09-09T04:37:01;97004.63;;;17.43;62.71
45078;BME280;60508;42.622;25.416;2022-09-09T04:39:28;97006.69;;;17.62;62.17
45078;BME280;60508;42.622;25.416;2022-09-09T04:41:54;97006.09;;;17.65;62.21
45078;BME280;60508;42.622;25.416;2022-09-09T04:44:21;97013.72;;;17.63;62.44
45078;BME280;60508;42.622;25.416;2022-09-09T04:46:48;97010.38;;;17.71;61.92
45078;BME280;60508;42.622;25.416;2022-09-09T04:49:13;97011.69;;;17.79;61.83
45078;BME280;60508;42.622;25.416;2022-09-09T04:51:39;97005.69;;;17.82;61.64
45078;BME280;60508;42.622;25.416;2022-09-09T04:54:05;97003.09;;;17.66;62.35
45078;BME280;60508;42.622;25.416;2022-09-09T04:56:32;97004.16;;;17.70;62.26
45078;BME280;60508;42.622;25.416;2022-09-09T04:59:00;97008.41;;;17.82;61.96
45078;BME280;60508;42.622;25.416;2022-09-09T05:01:45;97005.75;;;17.77;62.26
45078;BME280;60508;42.622;25.416;2022-09-09T05:04:11;97004.31;;;17.84;62.18
45078;BME280;60508;42.622;25.416;2022-09-09T05:06:37;97012.69;;;17.93;61.75
45078;BME280;60508;42.622;25.416;2022-09-09T05:09:04;97004.38;;;18.09;61.38
45078;BME280;60508;42.622;25.416;2022-09-09T05:11:32;97005.63;;;18.21;61.07
45078;BME280;60508;42.622;25.416;2022-09-09T05:14:03;96996.31;;;18.28;60.91
45078;BME280;60508;42.622;25.416;2022-09-09T05:16:31;97002.75;;;18.37;61.16
45078;BME280;60508;42.622;25.416;2022-09-09T05:18:57;97007.06;;;18.43;60.77
45078;BME280;60508;42.622;25.416;2022-09-09T05:21:28;97004.28;;;18.48;60.75
45078;BME280;60508;42.622;25.416;2022-09-09T05:23:54;97009.88;;;18.57;60.30
45078;BME280;60508;42.622;25.416;2022-09-09T05:26:21;97003.34;;;18.58;60.45
45078;BME280;60508;42.622;25.416;2022-09-09T05:28:50;97005.03;;;18.54;60.38
45078;BME280;60508;42.622;25.416;2022-09-09T05:31:18;97005.31;;;18.52;60.43
45078;BME280;60508;42.622;25.416;2022-09-09T05:33:47;97008.06;;;18.52;60.30
45078;BME280;60508;42.622;25.416;2022-09-09T05:36:16;96999.88;;;18.52;60.20
45078;BME280;60508;42.622;25.416;2022-09-09T05:38:43;97005.25;;;18.57;60.06
45078;BME280;60508;42.622;25.416;2022-09-09T05:41:11;96995.94;;;18.64;60.49
45078;BME280;60508;42.622;25.416;2022-09-09T05:43:38;96986.38;;;18.66;60.19
45078;BME280;60508;42.622;25.416;2022-09-09T05:46:09;96994.13;;;18.78;60.43
45078;BME280;60508;42.622;25.416;2022-09-09T05:48:38;96995.41;;;18.86;60.01
45078;BME280;60508;42.622;25.416;2022-09-09T05:51:07;96998.03;;;18.96;59.66
45078;BME280;60508;42.622;25.416;2022-09-09T05:53:34;96986.19;;;19.06;59.64
45078;BME280;60508;42.622;25.416;2022-09-09T05:56:09;96993.41;;;19.15;58.98
45078;BME280;60508;42.622;25.416;2022-09-09T05:58:37;96990.03;;;19.24;58.45
45078;BME280;60508;42.622;25.416;2022-09-09T06:01:11;96992.50;;;19.39;58.34
45078;BME280;60508;42.622;25.416;2022-09-09T06:03:39;96997.53;;;19.51;58.18
45078;BME280;60508;42.622;25.416;2022-09-09T06:06:08;96989.97;;;19.62;57.43
45078;BME280;60508;42.622;25.416;2022-09-09T06:08:36;96995.53;;;19.76;57.26
45078;BME280;60508;42.622;25.416;2022-09-09T06:11:04;97003.03;;;19.84;57.26
45078;BME280;60508;42.622;25.416;2022-09-09T06:13:32;96999.03;;;19.95;57.00
45078;BME280;60508;42.622;25.416;2022-09-09T06:15:59;96995.81;;;20.07;57.03
45078;BME280;60508;42.622;25.416;2022-09-09T06:18:26;97000.16;;;20.08;56.41
45078;BME280;60508;42.622;25.416;2022-09-09T06:21:01;97007.16;;;20.14;55.13
45078;BME280;60508;42.622;25.416;2022-09-09T06:23:30;97002.13;;;20.35;55.18
45078;BME280;60508;42.622;25.416;2022-09-09T06:26:08;97003.25;;;20.48;54.95
45078;BME280;60508;42.622;25.416;2022-09-09T06:28:35;97008.66;;;20.67;54.38
45078;BME280;60508;42.622;25.416;2022-09-09T06:31:09;96999.47;;;20.77;53.98
45078;BME280;60508;42.622;25.416;2022-09-09T06:33:37;97006.53;;;20.78;53.06
45078;BME280;60508;42.622;25.416;2022-09-09T06:36:16;97012.91;;;21.01;53.27
45078;BME280;60508;42.622;25.416;2022-09-09T06:38:43;97015.88;;;21.27;52.38
45078;BME280;60508;42.622;25.416;2022-09-09T06:41:13;97014.50;;;21.52;51.95
45078;BME280;60508;42.622;25.416;2022-09-09T06:43:40;97015.56;;;21.65;50.68
45078;BME280;60508;42.622;25.416;2022-09-09T06:48:33;97007.47;;;21.97;50.67
45078;BME280;60508;42.622;25.416;2022-09-09T06:51:08;97015.34;;;22.21;49.44
45078;BME280;60508;42.622;25.416;2022-09-09T06:53:38;97023.53;;;22.43;48.95
45078;BME280;60508;42.622;25.416;2022-09-09T06:58:39;97003.59;;;22.52;46.84
45078;BME280;60508;42.622;25.416;2022-09-09T07:01:15;97002.25;;;22.40;48.06
45078;BME280;60508;42.622;25.416;2022-09-09T07:03:45;97009.59;;;22.63;46.85
45078;BME280;60508;42.622;25.416;2022-09-09T07:06:22;97001.13;;;22.82;46.79
45078;BME280;60508;42.622;25.416;2022-09-09T07:08:53;96995.22;;;22.25;47.27
45078;BME280;60508;42.622;25.416;2022-09-09T07:11:24;96996.50;;;22.28;47.34
45078;BME280;60508;42.622;25.416;2022-09-09T07:13:53;97001.19;;;22.28;47.78
45078;BME280;60508;42.622;25.416;2022-09-09T07:16:21;96999.75;;;22.53;47.61
45078;BME280;60508;42.622;25.416;2022-09-09T07:18:51;97001.31;;;22.85;46.48
45078;BME280;60508;42.622;25.416;2022-09-09T07:21:18;97008.34;;;23.18;46.92
45078;BME280;60508;42.622;25.416;2022-09-09T07:23:46;97009.47;;;23.43;45.78
45078;BME280;60508;42.622;25.416;2022-09-09T07:26:14;97013.53;;;23.54;44.93
45078;BME280;60508;42.622;25.416;2022-09-09T07:28:41;97011.44;;;23.68;44.47
45078;BME280;60508;42.622;25.416;2022-09-09T07:31:23;97024.38;;;23.85;43.97
45078;BME280;60508;42.622;25.416;2022-09-09T07:33:50;97034.19;;;24.04;43.53
45078;BME280;60508;42.622;25.416;2022-09-09T07:36:18;97025.44;;;24.19;43.51
45078;BME280;60508;42.622;25.416;2022-09-09T07:38:50;97027.53;;;24.31;43.86
45078;BME280;60508;42.622;25.416;2022-09-09T07:41:25;97028.97;;;24.37;43.80
45078;BME280;60508;42.622;25.416;2022-09-09T07:43:52;97029.56;;;24.52;43.69
45078;BME280;60508;42.622;25.416;2022-09-09T07:46:21;97023.72;;;24.71;43.78
45078;BME280;60508;42.622;25.416;2022-09-09T07:48:52;97029.38;;;24.66;41.89
45078;BME280;60508;42.622;25.416;2022-09-09T07:51:28;97036.03;;;24.47;43.03
45078;BME280;60508;42.622;25.416;2022-09-09T07:53:58;97030.78;;;24.16;43.45
45078;BME280;60508;42.622;25.416;2022-09-09T07:56:26;97031.78;;;24.11;43.47
45078;BME280;60508;42.622;25.416;2022-09-09T07:58:54;97026.88;;;24.34;43.57
45078;BME280;60508;42.622;25.416;2022-09-09T08:01:35;97027.28;;;24.63;43.50
45078;BME280;60508;42.622;25.416;2022-09-09T08:04:07;97033.28;;;24.94;42.19
45078;BME280;60508;42.622;25.416;2022-09-09T08:06:45;97023.00;;;25.12;41.84
45078;BME280;60508;42.622;25.416;2022-09-09T08:09:13;97014.28;;;25.40;41.50
45078;BME280;60508;42.622;25.416;2022-09-09T08:11:40;97022.47;;;25.70;41.36
45078;BME280;60508;42.622;25.416;2022-09-09T08:14:08;97012.38;;;25.53;39.65
45078;BME280;60508;42.622;25.416;2022-09-09T08:16:37;97014.75;;;25.63;39.55
45078;BME280;60508;42.622;25.416;2022-09-09T08:19:05;97014.19;;;25.91;38.76
45078;BME280;60508;42.622;25.416;2022-09-09T08:21:33;97015.22;;;25.65;38.52
45078;BME280;60508;42.622;25.416;2022-09-09T08:24:01;97002.09;;;25.50;39.55
45078;BME280;60508;42.622;25.416;2022-09-09T08:26:30;97001.56;;;25.90;39.39
45078;BME280;60508;42.622;25.416;2022-09-09T08:28:58;96979.91;;;26.22;39.00
45078;BME280;60508;42.622;25.416;2022-09-09T08:31:33;96977.41;;;26.41;38.39
45078;BME280;60508;42.622;25.416;2022-09-09T08:34:01;96983.06;;;26.57;37.41
45078;BME280;60508;42.622;25.416;2022-09-09T08:36:33;96984.41;;;26.51;37.78
45078;BME280;60508;42.622;25.416;2022-09-09T08:39:00;96987.34;;;26.80;38.87
45078;BME280;60508;42.622;25.416;2022-09-09T08:44:59;96979.03;;;27.17;38.66
45078;BME280;60508;42.622;25.416;2022-09-09T08:55:24;96980.50;;;28.08;36.67
45078;BME280;60508;42.622;25.416;2022-09-09T08:57:56;96978.44;;;28.65;35.83
45078;BME280;60508;42.622;25.416;2022-09-09T09:00:32;96968.47;;;29.11;35.18
45078;BME280;60508;42.622;25.416;2022-09-09T09:05:33;96976.75;;;30.45;32.68
45078;BME280;60508;42.622;25.416;2022-09-09T09:10:46;96984.41;;;30.51;32.38
45078;BME280;60508;42.622;25.416;2022-09-09T09:13:30;96978.78;;;31.21;30.85
45078;BME280;60508;42.622;25.416;2022-09-09T09:18:49;96980.44;;;33.83;28.01
45078;BME280;60508;42.622;25.416;2022-09-09T09:21:25;96973.28;;;35.83;25.37
45078;BME280;60508;42.622;25.416;2022-09-09T09:23:57;96963.88;;;35.23;25.18
45078;BME280;60508;42.622;25.416;2022-09-09T09:26:35;96971.88;;;36.31;24.54
45078;BME280;60508;42.622;25.416;2022-09-09T09:29:17;96966.72;;;34.87;25.71
45078;BME280;60508;42.622;25.416;2022-09-09T09:31:51;96954.72;;;35.12;26.12
45078;BME280;60508;42.622;25.416;2022-09-09T09:34:19;96955.16;;;34.71;26.45
45078;BME280;60508;42.622;25.416;2022-09-09T09:36:56;96955.53;;;34.33;26.79
45078;BME280;60508;42.622;25.416;2022-09-09T09:39:31;96959.06;;;33.24;28.47
45078;BME280;60508;42.622;25.416;2022-09-09T09:42:10;96943.69;;;32.41;29.60
45078;BME280;60508;42.622;25.416;2022-09-09T09:44:40;96962.63;;;31.91;30.12
45078;BME280;60508;42.622;25.416;2022-09-09T09:47:21;96946.13;;;31.41;30.85
45078;BME280;60508;42.622;25.416;2022-09-09T09:50:19;96951.44;;;31.23;31.39
45078;BME280;60508;42.622;25.416;2022-09-09T09:53:02;96947.16;;;31.02;32.29
45078;BME280;60508;42.622;25.416;2022-09-09T09:55:34;96947.63;;;31.04;31.88
45078;BME280;60508;42.622;25.416;2022-09-09T09:58:04;96941.88;;;30.93;32.12
45078;BME280;60508;42.622;25.416;2022-09-09T10:00:32;96941.41;;;30.88;32.08
45078;BME280;60508;42.622;25.416;2022-09-09T10:03:18;96941.19;;;31.00;32.13
45078;BME280;60508;42.622;25.416;2022-09-09T10:05:47;96933.34;;;30.10;32.93
45078;BME280;60508;42.622;25.416;2022-09-09T10:08:15;96928.34;;;30.38;32.76
45078;BME280;60508;42.622;25.416;2022-09-09T10:11:09;96939.78;;;30.87;32.08
45078;BME280;60508;42.622;25.416;2022-09-09T10:14:11;96934.63;;;30.85;32.36
45078;BME280;60508;42.622;25.416;2022-09-09T10:19:30;96928.84;;;30.01;32.94
45078;BME280;60508;42.622;25.416;2022-09-09T10:32:28;96925.38;;;30.77;33.10
45078;BME280;60508;42.622;25.416;2022-09-09T10:37:50;96905.38;;;31.18;32.90
45078;BME280;60508;42.622;25.416;2022-09-09T10:40:42;96906.06;;;31.42;33.02
45078;BME280;60508;42.622;25.416;2022-09-09T10:43:24;96906.34;;;31.63;32.94
45078;BME280;60508;42.622;25.416;2022-09-09T10:46:05;96905.19;;;31.64;32.75
45078;BME280;60508;42.622;25.416;2022-09-09T10:57:34;96907.06;;;30.96;33.26
45078;BME280;60508;42.622;25.416;2022-09-09T11:00:23;96890.69;;;31.18;33.20
45078;BME280;60508;42.622;25.416;2022-09-09T11:03:00;96900.59;;;31.49;32.98
45078;BME280;60508;42.622;25.416;2022-09-09T11:08:00;96906.13;;;31.45;32.53
45078;BME280;60508;42.622;25.416;2022-09-09T11:10:55;96900.16;;;31.43;32.37
45078;BME280;60508;42.622;25.416;2022-09-09T11:18:47;96890.91;;;30.52;33.60
45078;BME280;60508;42.622;25.416;2022-09-09T11:21:23;96880.41;;;30.91;33.53
45078;BME280;60508;42.622;25.416;2022-09-09T11:23:57;96882.34;;;31.14;33.39
45078;BME280;60508;42.622;25.416;2022-09-09T11:26:37;96869.47;;;31.33;32.12
45078;BME280;60508;42.622;25.416;2022-09-09T11:29:33;96858.38;;;31.66;32.83
45078;BME280;60508;42.622;25.416;2022-09-09T11:35:00;96860.13;;;32.23;31.52
45078;BME280;60508;42.622;25.416;2022-09-09T11:40:32;96846.16;;;32.64;30.85
45078;BME280;60508;42.622;25.416;2022-09-09T11:43:19;96849.38;;;32.70;30.63
45078;BME280;60508;42.622;25.416;2022-09-09T11:45:52;96856.66;;;32.92;30.44
45078;BME280;60508;42.622;25.416;2022-09-09T11:48:35;96847.34;;;33.40;29.69
45078;BME280;60508;42.622;25.416;2022-09-09T11:51:07;96832.84;;;32.99;30.29
45078;BME280;60508;42.622;25.416;2022-09-09T11:53:35;96831.88;;;33.54;29.37
45078;BME280;60508;42.622;25.416;2022-09-09T11:56:05;96837.44;;;33.57;28.65
45078;BME280;60508;42.622;25.416;2022-09-09T11:58:37;96828.38;;;33.86;28.71
45078;BME280;60508;42.622;25.416;2022-09-09T12:01:15;96827.22;;;34.08;28.39
45078;BME280;60508;42.622;25.416;2022-09-09T12:06:30;96839.19;;;35.65;26.10
45078;BME280;60508;42.622;25.416;2022-09-09T12:11:40;96832.25;;;35.95;26.15
45078;BME280;60508;42.622;25.416;2022-09-09T12:14:21;96825.13;;;33.55;28.11
45078;BME280;60508;42.622;25.416;2022-09-09T12:16:48;96813.66;;;34.21;28.09
45078;BME280;60508;42.622;25.416;2022-09-09T12:19:18;96824.41;;;34.48;28.20
45078;BME280;60508;42.622;25.416;2022-09-09T12:24:22;96808.88;;;34.61;27.27
45078;BME280;60508;42.622;25.416;2022-09-09T12:29:28;96806.41;;;34.85;27.41
45078;BME280;60508;42.622;25.416;2022-09-09T12:32:12;96805.28;;;34.53;27.71
45078;BME280;60508;42.622;25.416;2022-09-09T12:34:44;96796.56;;;34.33;28.28
45078;BME280;60508;42.622;25.416;2022-09-09T12:37:31;96793.75;;;33.87;28.66
45078;BME280;60508;42.622;25.416;2022-09-09T12:40:00;96797.66;;;33.60;29.27
45078;BME280;60508;42.622;25.416;2022-09-09T12:42:29;96779.38;;;33.66;29.30
45078;BME280;60508;42.622;25.416;2022-09-09T12:44:57;96774.19;;;33.69;28.94
45078;BME280;60508;42.622;25.416;2022-09-09T12:50:02;96768.66;;;33.94;29.02
45078;BME280;60508;42.622;25.416;2022-09-09T12:52:33;96772.19;;;34.63;28.22
45078;BME280;60508;42.622;25.416;2022-09-09T12:55:03;96768.56;;;34.84;27.00
45078;BME280;60508;42.622;25.416;2022-09-09T12:57:36;96770.75;;;36.41;26.07
45078;BME280;60508;42.622;25.416;2022-09-09T13:00:15;96768.84;;;39.03;23.13
45078;BME280;60508;42.622;25.416;2022-09-09T13:02:47;96776.22;;;39.17;22.26
45078;BME280;60508;42.622;25.416;2022-09-09T13:05:28;96775.19;;;37.96;23.74
45078;BME280;60508;42.622;25.416;2022-09-09T13:08:08;96765.69;;;36.28;25.20
45078;BME280;60508;42.622;25.416;2022-09-09T13:10:57;96764.81;;;35.19;26.91
45078;BME280;60508;42.622;25.416;2022-09-09T13:15:57;96758.31;;;33.73;28.71
45078;BME280;60508;42.622;25.416;2022-09-09T13:18:27;96751.47;;;33.34;29.22
45078;BME280;60508;42.622;25.416;2022-09-09T13:20:54;96749.69;;;32.86;30.23
45078;BME280;60508;42.622;25.416;2022-09-09T13:23:30;96746.81;;;32.65;30.16
45078;BME280;60508;42.622;25.416;2022-09-09T13:25:59;96750.38;;;32.65;29.98
45078;BME280;60508;42.622;25.416;2022-09-09T13:28:28;96744.88;;;32.69;30.28
45078;BME280;60508;42.622;25.416;2022-09-09T13:31:03;96741.88;;;32.36;30.45
45078;BME280;60508;42.622;25.416;2022-09-09T13:33:32;96740.69;;;32.41;30.50
45078;BME280;60508;42.622;25.416;2022-09-09T13:36:07;96741.41;;;32.27;30.57
45078;BME280;60508;42.622;25.416;2022-09-09T13:38:40;96734.78;;;32.46;30.80
45078;BME280;60508;42.622;25.416;2022-09-09T13:41:21;96734.81;;;32.53;30.34
45078;BME280;60508;42.622;25.416;2022-09-09T13:43:50;96726.19;;;32.69;30.48
45078;BME280;60508;42.622;25.416;2022-09-09T13:46:36;96731.97;;;34.46;28.33
45078;BME280;60508;42.622;25.416;2022-09-09T13:49:23;96735.44;;;38.01;23.60
45078;BME280;60508;42.622;25.416;2022-09-09T13:51:51;96740.06;;;38.11;23.15
45078;BME280;60508;42.622;25.416;2022-09-09T13:54:20;96741.53;;;36.45;24.84
45078;BME280;60508;42.622;25.416;2022-09-09T13:56:46;96741.09;;;36.85;24.35
45078;BME280;60508;42.622;25.416;2022-09-09T13:59:15;96734.78;;;39.01;22.66
45078;BME280;60508;42.622;25.416;2022-09-09T14:01:42;96723.94;;;40.67;20.75
45078;BME280;60508;42.622;25.416;2022-09-09T14:04:08;96733.06;;;41.01;20.39
45078;BME280;60508;42.622;25.416;2022-09-09T14:06:36;96727.16;;;39.01;22.04
45078;BME280;60508;42.622;25.416;2022-09-09T14:09:05;96722.63;;;37.22;23.88
45078;BME280;60508;42.622;25.416;2022-09-09T14:11:31;96713.50;;;36.07;25.10
45078;BME280;60508;42.622;25.416;2022-09-09T14:13:57;96722.59;;;35.03;26.68
45078;BME280;60508;42.622;25.416;2022-09-09T14:16:23;96723.19;;;34.47;27.57
45078;BME280;60508;42.622;25.416;2022-09-09T14:18:49;96713.72;;;33.87;28.40
45078;BME280;60508;42.622;25.416;2022-09-09T14:21:17;96715.28;;;33.48;29.23
45078;BME280;60508;42.622;25.416;2022-09-09T14:23:43;96714.72;;;32.92;29.45
45078;BME280;60508;42.622;25.416;2022-09-09T14:26:10;96721.28;;;32.52;30.22
45078;BME280;60508;42.622;25.416;2022-09-09T14:28:36;96713.28;;;31.80;30.78
45078;BME280;60508;42.622;25.416;2022-09-09T14:31:03;96705.94;;;31.58;31.72
45078;BME280;60508;42.622;25.416;2022-09-09T14:33:30;96711.97;;;31.26;31.94
45078;BME280;60508;42.622;25.416;2022-09-09T14:36:00;96708.50;;;30.99;32.77
45078;BME280;60508;42.622;25.416;2022-09-09T14:38:33;96697.94;;;30.77;33.07
45078;BME280;60508;42.622;25.416;2022-09-09T14:41:00;96693.63;;;30.46;32.99
45078;BME280;60508;42.622;25.416;2022-09-09T14:43:29;96704.75;;;30.23;33.62
45078;BME280;60508;42.622;25.416;2022-09-09T14:45:55;96696.72;;;30.14;33.68
45078;BME280;60508;42.622;25.416;2022-09-09T14:48:21;96691.53;;;30.13;33.90
45078;BME280;60508;42.622;25.416;2022-09-09T14:50:47;96698.53;;;30.03;33.67
45078;BME280;60508;42.622;25.416;2022-09-09T14:53:16;96709.88;;;29.94;34.09
45078;BME280;60508;42.622;25.416;2022-09-09T14:55:42;96707.00;;;29.87;34.41
45078;BME280;60508;42.622;25.416;2022-09-09T14:58:08;96704.59;;;29.85;34.22
45078;BME280;60508;42.622;25.416;2022-09-09T15:00:34;96709.09;;;29.71;34.40
45078;BME280;60508;42.622;25.416;2022-09-09T15:03:00;96704.78;;;29.50;34.58
45078;BME280;60508;42.622;25.416;2022-09-09T15:05:26;96708.28;;;29.47;34.58
45078;BME280;60508;42.622;25.416;2022-09-09T15:07:54;96706.47;;;29.31;35.04
45078;BME280;60508;42.622;25.416;2022-09-09T15:10:20;96710.19;;;29.20;35.23